createdAt,value
2022-09-09T00:01:52.917Z,45.70
2022-09-09T00:04:29.816Z,45.70
2022-09-09T00:07:02.649Z,45.80
2022-09-09T00:09:31.761Z,45.70
2022-09-09T00:12:24.638Z,45.70
2022-09-09T00:15:12.722Z,45.70
2022-09-09T00:18:01.998Z,45.70
2022-09-09T00:20:51.111Z,45.80
2022-09-09T00:23:26.130Z,45.70
2022-09-09T00:26:14.829Z,46.40
2022-09-09T00:28:57.129Z,45.70
2022-09-09T00:31:30.095Z,45.80
2022-09-09T00:34:03.358Z,45.80
2022-09-09T00:36:33.076Z,45.80
2022-09-09T00:39:01.632Z,45.80
2022-09-09T00:41:49.698Z,45.70
2022-09-09T00:44:31.402Z,45.80
2022-09-09T00:47:05.323Z,45.80
2022-09-09T00:49:39.671Z,45.80
2022-09-09T00:52:38.174Z,45.80
2022-09-09T00:55:10.099Z,45.80
2022-09-09T00:57:37.160Z,45.80
2022-09-09T01:00:06.182Z,45.80
2022-09-09T01:02:51.699Z,45.80
2022-09-09T01:05:46.539Z,45.80
2022-09-09T01:08:39.177Z,45.80
2022-09-09T01:11:07.793Z,45.70
2022-09-09T01:13:36.231Z,45.80
2022-09-09T01:16:08.186Z,45.70
2022-09-09T01:18:40.163Z,45.80
2022-09-09T01:21:24.053Z,45.80
2022-09-09T01:24:06.290Z,45.80
2022-09-09T01:26:42.144Z,45.80
2022-09-09T01:29:14.504Z,45.80
2022-09-09T01:31:51.828Z,45.80
2022-09-09T01:34:18.354Z,45.80
2022-09-09T01:36:59.437Z,45.80
2022-09-09T01:39:26.382Z,45.90
2022-09-09T01:41:53.686Z,45.80
2022-09-09T01:44:20.252Z,45.90
2022-09-09T01:46:46.458Z,45.80
2022-09-09T01:49:13.114Z,45.80
2022-09-09T01:51:41.245Z,45.90
2022-09-09T01:54:07.846Z,45.90
2022-09-09T01:57:01.354Z,45.90
2022-09-09T01:59:27.472Z,45.90
2022-09-09T02:02:18.115Z,45.90
2022-09-09T02:05:01.105Z,45.90
2022-09-09T02:08:10.382Z,45.90
2022-09-09T02:10:48.364Z,45.90
2022-09-09T02:13:18.355Z,45.80
2022-09-09T02:15:48.179Z,45.80
2022-09-09T02:18:18.252Z,45.80
2022-09-09T02:20:46.087Z,45.80
2022-09-09T02:23:14.765Z,45.80
2022-09-09T02:25:42.095Z,45.80
2022-09-09T02:28:10.938Z,45.80
2022-09-09T02:30:39.783Z,45.80
2022-09-09T02:33:08.237Z,45.80
2022-09-09T02:35:37.938Z,45.80
2022-09-09T02:38:08.370Z,45.80
2022-09-09T02:40:34.589Z,45.80
2022-09-09T02:43:00.723Z,45.80
2022-09-09T02:45:37.577Z,45.80
2022-09-09T02:48:08.244Z,45.80
2022-09-09T02:50:44.196Z,45.90
2022-09-09T02:53:17.837Z,45.90
2022-09-09T02:56:07.657Z,45.90
2022-09-09T02:58:34.310Z,45.90
2022-09-09T03:01:03.243Z,46.50
2022-09-09T03:03:30.662Z,45.90
2022-09-09T03:05:57.318Z,45.90
2022-09-09T03:08:23.908Z,45.90
2022-09-09T03:10:50.051Z,45.90
2022-09-09T03:13:16.217Z,45.80
2022-09-09T03:15:42.678Z,45.80
2022-09-09T03:18:08.778Z,45.80
2022-09-09T03:20:34.909Z,46.40
2022-09-09T03:23:02.693Z,45.80
2022-09-09T03:25:29.029Z,45.80
2022-09-09T03:27:55.810Z,45.80
2022-09-09T03:30:22.869Z,45.80
2022-09-09T03:32:49.124Z,45.90
2022-09-09T03:35:16.145Z,45.90
2022-09-09T03:37:42.373Z,45.80
2022-09-09T03:40:10.294Z,45.80
2022-09-09T03:42:37.337Z,45.80
2022-09-09T03:45:05.342Z,45.80
2022-09-09T03:47:31.611Z,45.80
2022-09-09T03:49:57.678Z,45.80
2022-09-09T03:52:25.397Z,45.90
2022-09-09T03:54:52.133Z,45.80
2022-09-09T03:57:18.183Z,45.90
2022-09-09T03:59:44.425Z,45.90
2022-09-09T04:02:10.774Z,45.90
2022-09-09T04:04:36.931Z,45.80
2022-09-09T04:07:03.042Z,45.80
2022-09-09T04:09:29.250Z,45.80
2022-09-09T04:11:55.319Z,45.80
2022-09-09T04:14:21.519Z,45.80
2022-09-09T04:16:47.754Z,46.20
2022-09-09T04:19:14.624Z,45.90
2022-09-09T04:21:43.472Z,45.90
2022-09-09T04:24:10.005Z,45.90
2022-09-09T04:26:37.004Z,45.90
2022-09-09T04:29:04.107Z,45.90
2022-09-09T04:31:30.664Z,45.90
2022-09-09T04:33:57.093Z,45.80
2022-09-09T04:36:23.319Z,45.90
2022-09-09T04:38:49.607Z,45.90
2022-09-09T04:41:16.891Z,45.90
2022-09-09T04:43:43.083Z,45.90
2022-09-09T04:46:09.405Z,45.90
2022-09-09T04:48:35.693Z,45.80
2022-09-09T04:51:05.101Z,45.80
2022-09-09T04:53:31.595Z,45.90
2022-09-09T04:56:06.028Z,45.90
2022-09-09T04:58:32.533Z,45.90
2022-09-09T05:01:14.540Z,45.80
2022-09-09T05:03:40.819Z,45.70
2022-09-09T05:06:12.606Z,45.50
2022-09-09T05:08:39.847Z,45.40
2022-09-09T05:11:16.511Z,45.50
2022-09-09T05:13:42.867Z,45.40
2022-09-09T05:16:11.460Z,45.40
2022-09-09T05:18:39.167Z,45.40
2022-09-09T05:21:06.649Z,45.40
2022-09-09T05:23:34.208Z,45.30
2022-09-09T05:26:00.649Z,45.40
2022-09-09T05:28:27.962Z,45.40
2022-09-09T05:31:05.180Z,45.30
2022-09-09T05:33:32.248Z,45.30
2022-09-09T05:36:00.246Z,45.40
2022-09-09T05:38:28.747Z,45.30
2022-09-09T05:40:56.972Z,45.40
2022-09-09T05:43:24.152Z,45.40
2022-09-09T05:46:10.611Z,45.30
2022-09-09T05:48:40.838Z,45.30
2022-09-09T05:51:11.058Z,45.40
2022-09-09T05:53:37.213Z,45.40
2022-09-09T05:56:11.014Z,45.70
2022-09-09T05:58:37.886Z,45.30
2022-09-09T06:01:10.286Z,45.40
2022-09-09T06:03:38.370Z,45.40
2022-09-09T06:06:06.756Z,45.40
2022-09-09T06:08:34.513Z,45.30
2022-09-09T06:11:09.058Z,45.40
2022-09-09T06:13:35.824Z,45.40
2022-09-09T06:16:02.154Z,45.40
2022-09-09T06:18:28.259Z,45.40
2022-09-09T06:20:55.962Z,45.40
2022-09-09T06:23:22.118Z,45.50
2022-09-09T06:25:49.317Z,45.50
2022-09-09T06:28:16.009Z,45.50
2022-09-09T06:30:42.405Z,45.50
2022-09-09T06:33:09.579Z,45.50
2022-09-09T06:35:35.749Z,45.60
2022-09-09T06:38:01.786Z,45.60
2022-09-09T06:40:27.861Z,45.70
2022-09-09T06:42:53.903Z,46.30
2022-09-09T06:45:19.995Z,45.60
2022-09-09T06:47:46.038Z,45.60
2022-09-09T06:50:12.065Z,45.60
2022-09-09T06:52:38.111Z,46.20
2022-09-09T06:55:04.581Z,45.70
2022-09-09T06:57:38.128Z,45.70
2022-09-09T07:00:05.014Z,45.70
2022-09-09T07:02:32.585Z,45.60
2022-09-09T07:05:00.487Z,45.70
2022-09-09T07:07:27.325Z,45.60
2022-09-09T07:09:53.409Z,45.70
2022-09-09T07:12:19.446Z,45.60
2022-09-09T07:14:46.108Z,45.60
2022-09-09T07:17:12.154Z,45.70
2022-09-09T07:19:38.205Z,45.70
2022-09-09T07:22:04.396Z,45.70
2022-09-09T07:24:31.000Z,45.70
2022-09-09T07:26:57.473Z,45.70
2022-09-09T07:29:23.519Z,45.70
2022-09-09T07:31:49.706Z,45.70
2022-09-09T07:34:16.015Z,45.80
2022-09-09T07:36:42.799Z,45.80
2022-09-09T07:39:13.596Z,45.80
2022-09-09T07:41:46.486Z,45.80
2022-09-09T07:44:18.594Z,45.90
2022-09-09T07:46:45.865Z,45.90
2022-09-09T07:49:12.849Z,45.90
2022-09-09T07:51:41.518Z,45.90
2022-09-09T07:54:10.376Z,46.00
2022-09-09T07:56:38.019Z,45.90
2022-09-09T07:59:06.517Z,46.00
2022-09-09T08:01:34.488Z,46.10
2022-09-09T08:04:05.989Z,46.10
2022-09-09T08:06:35.299Z,46.10
2022-09-09T08:09:01.517Z,46.10
2022-09-09T08:11:29.430Z,46.10
2022-09-09T08:14:00.255Z,46.10
2022-09-09T08:16:36.789Z,46.20
2022-09-09T08:19:04.210Z,46.30
2022-09-09T08:21:32.055Z,46.30
2022-09-09T08:24:00.473Z,46.30
2022-09-09T08:26:31.830Z,46.40
2022-09-09T08:28:59.751Z,46.40
2022-09-09T08:31:28.453Z,46.40
2022-09-09T08:33:55.265Z,46.40
2022-09-09T08:36:23.849Z,46.50
2022-09-09T08:38:51.496Z,46.50
2022-09-09T08:41:32.606Z,46.50
2022-09-09T08:44:17.407Z,46.50
2022-09-09T08:47:03.700Z,46.50
2022-09-09T08:49:52.455Z,46.60
2022-09-09T08:52:39.914Z,46.60
2022-09-09T08:55:39.125Z,46.60
2022-09-09T08:58:30.532Z,46.60
2022-09-09T09:01:08.874Z,46.70
2022-09-09T09:03:53.533Z,46.70
2022-09-09T09:06:31.308Z,46.70
2022-09-09T09:09:11.055Z,47.50
2022-09-09T09:11:39.805Z,46.80
2022-09-09T09:14:26.062Z,46.80
2022-09-09T09:17:13.517Z,46.90
2022-09-09T09:19:42.245Z,46.90
2022-09-09T09:22:34.454Z,46.90
2022-09-09T09:25:13.342Z,46.90
2022-09-09T09:28:06.872Z,47.00
2022-09-09T09:30:41.930Z,47.00
2022-09-09T09:33:46.524Z,47.00
2022-09-09T09:36:15.713Z,47.00
2022-09-09T09:41:43.899Z,47.10
2022-09-09T09:44:39.306Z,47.10
2022-09-09T09:47:27.265Z,47.10
2022-09-09T09:50:04.423Z,47.20
2022-09-09T09:52:32.502Z,47.40
2022-09-09T09:55:07.327Z,47.50
2022-09-09T09:57:34.666Z,47.50
2022-09-09T10:00:17.639Z,47.70
2022-09-09T10:02:45.493Z,47.60
2022-09-09T10:05:26.339Z,47.50
2022-09-09T10:08:09.478Z,47.40
2022-09-09T10:11:01.845Z,47.40
2022-09-09T10:13:49.810Z,47.40
2022-09-09T10:16:41.230Z,47.40
2022-09-09T10:19:34.001Z,47.40
2022-09-09T10:22:14.055Z,47.40
2022-09-09T10:25:22.108Z,47.50
2022-09-09T10:28:05.910Z,47.50
2022-09-09T10:30:49.218Z,47.50
2022-09-09T10:33:21.029Z,48.20
2022-09-09T10:36:20.785Z,47.90
2022-09-09T10:38:52.737Z,47.80
2022-09-09T10:41:25.887Z,47.90
2022-09-09T10:44:18.962Z,47.70
2022-09-09T10:47:08.275Z,47.80
2022-09-09T10:49:53.982Z,47.70
2022-09-09T10:52:56.374Z,47.70
2022-09-09T10:55:29.926Z,47.70
2022-09-09T10:57:59.510Z,47.80
2022-09-09T11:00:37.397Z,47.70
2022-09-09T11:03:04.471Z,47.70
2022-09-09T11:06:05.081Z,47.70
2022-09-09T11:08:35.786Z,47.80
2022-09-09T11:11:05.019Z,47.70
2022-09-09T11:13:54.625Z,47.70
2022-09-09T11:16:42.290Z,47.70
2022-09-09T11:19:39.501Z,47.70
2022-09-09T11:22:17.090Z,47.70
2022-09-09T11:24:55.682Z,47.70
2022-09-09T11:27:35.870Z,47.70
2022-09-09T11:30:44.175Z,47.70
2022-09-09T11:33:22.161Z,47.60
2022-09-09T11:36:28.915Z,47.50
2022-09-09T11:39:20.165Z,47.50
2022-09-09T11:41:46.218Z,47.50
2022-09-09T11:44:19.529Z,47.50
2022-09-09T11:46:50.906Z,47.60
2022-09-09T11:49:31.018Z,47.50
2022-09-09T11:51:57.388Z,47.50
2022-09-09T11:54:32.460Z,47.50
2022-09-09T11:56:59.281Z,47.50
2022-09-09T11:59:28.145Z,47.50
2022-09-09T12:02:27.916Z,47.60
2022-09-09T12:05:08.891Z,47.60
2022-09-09T12:07:50.529Z,47.70
2022-09-09T12:10:30.250Z,47.60
2022-09-09T12:13:07.577Z,47.70
2022-09-09T12:15:33.781Z,47.60
2022-09-09T12:18:03.568Z,47.60
2022-09-09T12:20:40.558Z,47.70
2022-09-09T12:23:36.817Z,47.60
2022-09-09T12:26:41.327Z,47.60
2022-09-09T12:29:16.136Z,47.70
2022-09-09T12:32:01.599Z,47.70
2022-09-09T12:35:09.463Z,47.60
2022-09-09T12:37:40.351Z,47.60
2022-09-09T12:40:22.778Z,47.60
2022-09-09T12:42:49.294Z,47.60
2022-09-09T12:45:21.055Z,47.60
2022-09-09T12:47:52.809Z,47.60
2022-09-09T12:50:26.087Z,47.60
2022-09-09T12:52:55.815Z,47.60
2022-09-09T12:55:25.553Z,47.60
2022-09-09T12:57:52.435Z,47.60
2022-09-09T13:00:22.833Z,47.50
2022-09-09T13:02:57.521Z,47.50
2022-09-09T13:05:39.187Z,47.50
2022-09-09T13:08:08.766Z,48.00
2022-09-09T13:10:57.644Z,47.90
2022-09-09T13:13:40.003Z,47.80
2022-09-09T13:16:18.566Z,47.50
2022-09-09T13:18:44.761Z,47.50
2022-09-09T13:21:10.911Z,47.40
2022-09-09T13:23:38.269Z,47.40
2022-09-09T13:26:21.468Z,47.70
2022-09-09T13:28:48.039Z,47.40
2022-09-09T13:31:28.856Z,47.40
2022-09-09T13:33:55.175Z,47.40
2022-09-09T13:36:31.193Z,47.50
2022-09-09T13:39:01.851Z,47.50
2022-09-09T13:41:36.573Z,47.50
2022-09-09T13:44:04.847Z,47.50
2022-09-09T13:46:35.176Z,47.50
2022-09-09T13:49:22.671Z,47.50
2022-09-09T13:51:52.545Z,47.50
2022-09-09T13:54:20.439Z,47.50
2022-09-09T13:56:47.265Z,47.50
2022-09-09T13:59:16.297Z,47.50
2022-09-09T14:01:42.805Z,47.50
2022-09-09T14:04:09.369Z,47.50
2022-09-09T14:06:39.611Z,47.50
2022-09-09T14:09:12.386Z,47.40
2022-09-09T14:11:38.736Z,47.50
2022-09-09T14:14:05.577Z,47.40
2022-09-09T14:16:31.663Z,47.30
2022-09-09T14:18:57.750Z,47.30
2022-09-09T14:21:24.522Z,47.30
2022-09-09T14:23:50.610Z,47.30
2022-09-09T14:26:16.662Z,47.30
2022-09-09T14:28:54.797Z,47.20
2022-09-09T14:31:21.691Z,47.20
2022-09-09T14:33:47.934Z,47.20
2022-09-09T14:36:15.421Z,47.20
2022-09-09T14:38:42.389Z,47.20
2022-09-09T14:41:13.814Z,47.10
2022-09-09T14:43:40.199Z,47.20
2022-09-09T14:46:11.813Z,47.10
2022-09-09T14:48:40.775Z,47.20
2022-09-09T14:51:22.509Z,47.10
2022-09-09T14:53:51.480Z,47.10
2022-09-09T14:56:20.836Z,47.10
2022-09-09T14:58:46.918Z,47.10
2022-09-09T15:01:15.502Z,47.10
2022-09-09T15:03:43.724Z,47.10
2022-09-09T15:06:12.497Z,47.10
2022-09-09T15:08:43.488Z,47.10
2022-09-09T15:11:11.117Z,47.00
2022-09-09T15:13:38.692Z,47.80
2022-09-09T15:16:06.880Z,47.10
2022-09-09T15:18:33.801Z,47.10
2022-09-09T15:21:01.828Z,47.20
2022-09-09T15:23:27.886Z,47.20
2022-09-09T15:25:55.423Z,47.20
2022-09-09T15:28:22.436Z,47.20
2022-09-09T15:30:52.400Z,47.20
2022-09-09T15:33:22.386Z,47.20
2022-09-09T15:35:50.053Z,47.20
2022-09-09T15:38:17.005Z,47.20
2022-09-09T15:40:43.915Z,47.20
2022-09-09T15:43:10.979Z,47.20
2022-09-09T15:45:37.678Z,47.20
2022-09-09T15:48:04.787Z,47.10
2022-09-09T15:50:32.705Z,47.20
2022-09-09T15:52:59.872Z,47.10
2022-09-09T15:55:25.932Z,47.20
2022-09-09T15:57:55.415Z,47.30
2022-09-09T16:00:23.123Z,47.20
2022-09-09T16:02:49.583Z,47.20
2022-09-09T16:05:16.130Z,47.20
2022-09-09T16:07:42.801Z,47.20
2022-09-09T16:10:09.818Z,47.20
2022-09-09T16:12:35.862Z,47.20
2022-09-09T16:15:01.963Z,47.10
2022-09-09T16:17:28.097Z,47.20
2022-09-09T16:19:54.701Z,47.20
2022-09-09T16:22:21.042Z,47.20
2022-09-09T16:24:47.109Z,47.20
2022-09-09T16:27:14.410Z,47.20
2022-09-09T16:29:40.502Z,47.20
2022-09-09T16:32:06.596Z,47.20
2022-09-09T16:34:33.774Z,47.20
2022-09-09T16:36:59.838Z,47.20
2022-09-09T16:39:26.136Z,47.20
2022-09-09T16:41:52.697Z,47.20
2022-09-09T16:44:19.578Z,47.30
2022-09-09T16:46:48.986Z,47.30
2022-09-09T16:49:16.182Z,47.30
2022-09-09T16:51:48.065Z,47.20
2022-09-09T16:54:16.422Z,47.30
2022-09-09T16:56:44.649Z,47.20
2022-09-09T16:59:14.251Z,47.40
2022-09-09T17:01:42.497Z,47.30
2022-09-09T17:04:14.073Z,47.20
2022-09-09T17:06:41.658Z,47.20
2022-09-09T17:09:10.461Z,47.20
2022-09-09T17:11:38.437Z,47.10
2022-09-09T17:14:05.643Z,47.00
2022-09-09T17:16:34.426Z,47.00
2022-09-09T17:19:02.060Z,47.00
2022-09-09T17:21:30.437Z,47.00
2022-09-09T17:23:57.881Z,47.00
2022-09-09T17:26:30.270Z,47.00
2022-09-09T17:28:59.678Z,47.00
2022-09-09T17:31:27.823Z,47.00
2022-09-09T17:33:54.708Z,47.00
2022-09-09T17:36:28.068Z,47.00
2022-09-09T17:38:54.242Z,46.90
2022-09-09T17:41:22.972Z,46.90
2022-09-09T17:43:49.824Z,46.80
2022-09-09T17:46:22.485Z,46.90
2022-09-09T17:48:51.139Z,46.90
2022-09-09T17:51:20.506Z,46.90
2022-09-09T17:53:49.018Z,46.90
2022-09-09T17:56:17.554Z,46.90
2022-09-09T17:58:44.602Z,46.90
2022-09-09T18:01:15.361Z,46.90
2022-09-09T18:03:42.919Z,46.90
2022-09-09T18:06:13.035Z,46.90
2022-09-09T18:08:40.298Z,46.90
2022-09-09T18:11:07.649Z,46.80
2022-09-09T18:13:34.206Z,46.80
2022-09-09T18:16:01.195Z,46.90
2022-09-09T18:18:28.562Z,46.80
2022-09-09T18:21:13.612Z,46.80
2022-09-09T18:23:42.258Z,46.80
2022-09-09T18:26:14.173Z,46.80
2022-09-09T18:28:42.211Z,46.80
2022-09-09T18:31:10.880Z,46.80
2022-09-09T18:33:40.357Z,46.80
2022-09-09T18:36:11.446Z,46.80
2022-09-09T18:38:38.200Z,46.80
2022-09-09T18:41:23.687Z,46.80
2022-09-09T18:43:54.310Z,46.80
2022-09-09T18:46:21.612Z,46.80
2022-09-09T18:48:49.747Z,46.80
2022-09-09T18:51:21.737Z,46.90
2022-09-09T18:54:15.220Z,46.80
2022-09-09T18:56:41.922Z,46.80
2022-09-09T18:59:10.290Z,46.80
2022-09-09T19:01:36.508Z,46.80
2022-09-09T19:04:05.444Z,46.80
2022-09-09T19:06:32.846Z,46.80
2022-09-09T19:09:03.150Z,46.80
2022-09-09T19:11:29.871Z,46.80
2022-09-09T19:13:58.825Z,46.80
2022-09-09T19:16:28.445Z,46.80
2022-09-09T19:18:57.671Z,46.80
2022-09-09T19:21:26.418Z,46.80
2022-09-09T19:23:59.953Z,46.80
2022-09-09T19:26:32.581Z,46.80
2022-09-09T19:28:59.825Z,46.80
2022-09-09T19:31:27.317Z,46.80
2022-09-09T19:33:55.072Z,46.80
2022-09-09T19:36:22.856Z,46.70
2022-09-09T19:38:49.269Z,46.80
2022-09-09T19:41:19.357Z,47.40
2022-09-09T19:43:46.343Z,46.80
2022-09-09T19:46:15.012Z,46.80
2022-09-09T19:48:42.598Z,46.70
2022-09-09T19:51:14.665Z,46.80
2022-09-09T19:53:43.725Z,46.80
2022-09-09T19:56:10.647Z,46.80
2022-09-09T19:58:39.339Z,46.80
2022-09-09T20:01:11.220Z,46.70
2022-09-09T20:03:38.945Z,46.70
2022-09-09T20:06:06.629Z,46.70
2022-09-09T20:08:34.001Z,46.70
2022-09-09T20:11:00.698Z,46.70
2022-09-09T20:13:29.310Z,46.70
2022-09-09T20:16:03.736Z,46.60
2022-09-09T20:18:31.822Z,46.60
2022-09-09T20:21:06.786Z,46.60
2022-09-09T20:23:33.385Z,46.60
2022-09-09T20:26:08.144Z,46.60
2022-09-09T20:28:35.655Z,46.60
2022-09-09T20:31:08.789Z,46.50
2022-09-09T20:33:35.371Z,46.50
2022-09-09T20:36:35.359Z,46.60
2022-09-09T20:39:07.655Z,46.60
2022-09-09T20:41:35.891Z,46.60
2022-09-09T20:44:13.591Z,46.60
2022-09-09T20:46:42.396Z,46.60
2022-09-09T20:49:10.256Z,46.60
2022-09-09T20:51:37.053Z,46.60
2022-09-09T20:54:13.231Z,46.60
2022-09-09T20:56:42.111Z,47.20
2022-09-09T20:59:12.353Z,46.50
2022-09-09T21:01:39.503Z,46.50
2022-09-09T21:04:06.565Z,46.50
2022-09-09T21:06:32.642Z,46.50
2022-09-09T21:08:58.820Z,46.50
2022-09-09T21:11:25.294Z,46.50
2022-09-09T21:13:51.392Z,46.50
2022-09-09T21:16:20.971Z,46.50
2022-09-09T21:18:48.432Z,46.50
2022-09-09T21:21:15.350Z,46.60
2022-09-09T21:23:41.678Z,46.50
2022-09-09T21:26:09.222Z,46.50
2022-09-09T21:28:35.403Z,46.50
2022-09-09T21:31:02.709Z,47.10
2022-09-09T21:33:29.762Z,46.50
2022-09-09T21:36:02.872Z,46.50
2022-09-09T21:38:29.028Z,46.50
2022-09-09T21:40:55.063Z,46.50
2022-09-09T21:43:22.837Z,46.50
2022-09-09T21:45:50.171Z,46.50
2022-09-09T21:48:18.308Z,46.50
2022-09-09T21:50:46.281Z,46.50
2022-09-09T21:53:15.197Z,46.40
2022-09-09T21:55:42.255Z,46.40
2022-09-09T21:58:09.776Z,46.40
2022-09-09T22:00:36.134Z,46.40
2022-09-09T22:03:03.058Z,46.40
2022-09-09T22:05:30.814Z,46.40
2022-09-09T22:07:57.632Z,46.40
2022-09-09T22:10:26.384Z,46.40
2022-09-09T22:12:53.405Z,46.40
2022-09-09T22:15:19.767Z,46.40
2022-09-09T22:17:45.855Z,46.40
2022-09-09T22:20:12.266Z,46.40
2022-09-09T22:22:38.918Z,46.40
2022-09-09T22:25:06.559Z,46.40
2022-09-09T22:27:32.797Z,46.40
2022-09-09T22:29:58.843Z,46.40
2022-09-09T22:32:25.188Z,46.40
2022-09-09T22:34:51.318Z,46.40
2022-09-09T22:37:17.733Z,46.40
2022-09-09T22:39:43.852Z,46.40
2022-09-09T22:42:09.898Z,46.50
2022-09-09T22:44:35.885Z,46.50
2022-09-09T22:47:02.013Z,46.50
2022-09-09T22:49:28.486Z,46.50
2022-09-09T22:51:54.563Z,46.50
2022-09-09T22:54:23.337Z,46.50
2022-09-09T22:56:50.510Z,46.50
2022-09-09T22:59:17.949Z,46.50
2022-09-09T23:01:44.684Z,46.50
2022-09-09T23:04:12.452Z,46.50
2022-09-09T23:06:42.450Z,46.50
2022-09-09T23:09:11.825Z,46.50
2022-09-09T23:11:38.451Z,46.50
2022-09-09T23:14:09.049Z,46.50
2022-09-09T23:16:38.973Z,46.50
2022-09-09T23:19:10.889Z,46.50
2022-09-09T23:21:38.768Z,46.60
2022-09-09T23:24:06.587Z,46.50
2022-09-09T23:26:33.402Z,46.60
2022-09-09T23:29:01.420Z,46.50
2022-09-09T23:31:36.736Z,46.60
2022-09-09T23:34:03.937Z,46.50
2022-09-09T23:36:30.445Z,46.50
2022-09-09T23:38:58.653Z,46.50
2022-09-09T23:41:25.107Z,46.50
2022-09-09T23:43:52.729Z,47.20
2022-09-09T23:46:26.707Z,46.50
2022-09-09T23:48:53.693Z,46.60
2022-09-09T23:51:23.075Z,46.60
2022-09-09T23:53:51.638Z,46.60
2022-09-09T23:56:22.565Z,46.60
2022-09-09T23:58:49.555Z,46.70
